Observation data for Hart on 01/17/2019      Previous  Date  Next       Current Mesonet Observations  Soil Data  Daily Summary Page  Observations in Plain Language
KHRS 170600Z 27014KT 08/M01 A3009 RMK A01 T00791012  RH  053%=      5-min Rain = 0
KHRS 170605Z 28014KT 08/M01 A3008 RMK A01 T00771011  RH  054%=      5-min Rain = 0
KHRS 170610Z 29015KT 08/M01 A3008 RMK A01 T00771011  RH  054%=      5-min Rain = 0
KHRS 170615Z 29015KT 08/M01 A3009 RMK A01 T00781010  RH  054%=      5-min Rain = 0
KHRS 170620Z 29014KT 08/M01 A3009 RMK A01 T00771009  RH  055%=      5-min Rain = 0
KHRS 170625Z 29014KT 08/M01 A3008 RMK A01 T00761009  RH  055%=      5-min Rain = 0
KHRS 170630Z 28014KT 08/M01 A3009 RMK A01 T00761010  RH  055%=      5-min Rain = 0
KHRS 170635Z 28014KT 08/M01 A3009 RMK A01 T00761010  RH  055%=      5-min Rain = 0
KHRS 170640Z 28014KT 08/M01 A3008 RMK A01 T00751010  RH  056%=      5-min Rain = 0
KHRS 170645Z 29014KT 08/M01 A3008 RMK A01 T00751010  RH  055%=      5-min Rain = 0
KHRS 170650Z 29014KT 07/M01 A3008 RMK A01 T00741010  RH  056%=      5-min Rain = 0
KHRS 170655Z 29014KT 07/M01 A3008 RMK A01 T00731010  RH  056%=      5-min Rain = 0
KHRS 170700Z 29014KT 07/M01 A3008 RMK A01 T00721010  RH  057%=      5-min Rain = 0
KHRS 170705Z 29014KT 07/M01 A3008 RMK A01 T00701010  RH  057%=      5-min Rain = 0
KHRS 170710Z 29015KT 07/M01 A3008 RMK A01 T00711010  RH  057%=      5-min Rain = 0
KHRS 170715Z 29015KT 07/M01 A3008 RMK A01 T00721010  RH  057%=      5-min Rain = 0
KHRS 170720Z 29015KT 07/M01 A3007 RMK A01 T00721010  RH  057%=      5-min Rain = 0
KHRS 170725Z 29015KT 07/M01 A3007 RMK A01 T00721010  RH  057%=      5-min Rain = 0
KHRS 170730Z 29014KT 07/M01 A3007 RMK A01 T00701010  RH  057%=      5-min Rain = 0
KHRS 170735Z 29013KT 07/M01 A3007 RMK A01 T00691010  RH  058%=      5-min Rain = 0
KHRS 170740Z 28014KT 07/M01 A3007 RMK A01 T00691010  RH  058%=      5-min Rain = 0
KHRS 170745Z 28014KT 07/M01 A3007 RMK A01 T00701009  RH  058%=      5-min Rain = 0
KHRS 170750Z 28014KT 07/M01 A3008 RMK A01 T00691009  RH  058%=      5-min Rain = 0
KHRS 170755Z 28014KT 07/M01 A3008 RMK A01 T00681010  RH  058%=      5-min Rain = 0
KHRS 170800Z 28013KT 07/M01 A3008 RMK A01 T00661010  RH  059%=      5-min Rain = 0
KHRS 170805Z 27012KT 07/M01 A3008 RMK A01 T00651010  RH  059%=      5-min Rain = 0
KHRS 170810Z 27012KT 06/M01 A3008 RMK A01 T00631010  RH  060%=      5-min Rain = 0
KHRS 170815Z 26011KT 06/M01 A3009 RMK A01 T00601011  RH  061%=      5-min Rain = 0
KHRS 170820Z 27010KT 06/M01 A3009 RMK A01 T00561011  RH  063%=      5-min Rain = 0
KHRS 170825Z 27011KT 06/M01 A3009 RMK A01 T00571010  RH  062%=      5-min Rain = 0
KHRS 170830Z 27011KT 06/M01 A3009 RMK A01 T00571011  RH  062%=      5-min Rain = 0
KHRS 170835Z 28011KT 06/M01 A3009 RMK A01 T00571012  RH  062%=      5-min Rain = 0
KHRS 170840Z 28012KT 06/M01 A3009 RMK A01 T00581012  RH  062%=      5-min Rain = 0
KHRS 170845Z 28012KT 06/M01 A3009 RMK A01 T00581012  RH  061%=      5-min Rain = 0
KHRS 170850Z 28013KT 06/M01 A3009 RMK A01 T00581012  RH  061%=      5-min Rain = 0
KHRS 170855Z 29013KT 06/M01 A3009 RMK A01 T00591013  RH  061%=      5-min Rain = 0
KHRS 170900Z 29013KT 06/M01 A301 RMK A01 T00591013  RH  061%=      5-min Rain = 0
KHRS 170905Z 28013KT 06/M01 A301 RMK A01 T00561014  RH  061%=      5-min Rain = 0
KHRS 170910Z 28012KT 05/M01 A301 RMK A01 T00531014  RH  062%=      5-min Rain = 0
KHRS 170915Z 28011KT 05/M01 A301 RMK A01 T00501014  RH  064%=      5-min Rain = 0
KHRS 170920Z 27010KT 05/M02 A301 RMK A01 T00461015  RH  065%=      5-min Rain = 0
KHRS 170925Z 26009KT 04/M02 A3011 RMK A01 T00421016  RH  067%=      5-min Rain = 0
KHRS 170930Z 25009KT 04/M02 A3011 RMK A01 T00351018  RH  069%=      5-min Rain = 0
KHRS 170935Z 25008KT 03/M02 A3011 RMK A01 T00311017  RH  072%=      5-min Rain = 0
KHRS 170940Z 25007KT 03/M02 A3012 RMK A01 T00301018  RH  072%=      5-min Rain = 0
KHRS 170945Z 24007KT 02/M02 A3012 RMK A01 T00241020  RH  074%=      5-min Rain = 0
KHRS 170950Z 24006KT 02/M02 A3012 RMK A01 T00201021  RH  075%=      5-min Rain = 0
KHRS 170955Z 25007KT 02/M02 A3012 RMK A01 T00161023  RH  076%=      5-min Rain = 0
KHRS 171000Z 25008KT 01/M02 A3012 RMK A01 T00121024  RH  078%=      5-min Rain = 0
KHRS 171005Z 26008KT 01/M02 A3012 RMK A01 T00111023  RH  079%=      5-min Rain = 0
KHRS 171010Z 27008KT 01/M02 A3012 RMK A01 T00101024  RH  079%=      5-min Rain = 0
KHRS 171015Z 27008KT 01/M03 A3012 RMK A01 T00091025  RH  079%=      5-min Rain = 0
KHRS 171020Z 31006KT 01/M03 A3013 RMK A01 T00061028  RH  079%=      5-min Rain = 0
KHRS 171025Z 29008KT 00/M03 A3013 RMK A01 T00021029  RH  081%=      5-min Rain = 0
KHRS 171030Z 30009KT 01/M02 A3013 RMK A01 T00051024  RH  082%=      5-min Rain = 0
KHRS 171035Z 31008KT 01/M02 A3013 RMK A01 T00081023  RH  081%=      5-min Rain = 0
KHRS 171040Z 31008KT 00/M03 A3013 RMK A01 T00041027  RH  080%=      5-min Rain = 0
KHRS 171045Z 32009KT 00/M03 A3013 RMK A01 T00031027  RH  082%=      5-min Rain = 0
KHRS 171050Z 31010KT 01/M02 A3013 RMK A01 T00071023  RH  082%=      5-min Rain = 0
KHRS 171055Z 31009KT 01/M02 A3013 RMK A01 T00121022  RH  079%=      5-min Rain = 0
KHRS 171100Z 31009KT 01/M02 A3013 RMK A01 T00121024  RH  078%=      5-min Rain = 0
KHRS 171105Z 31010KT 01/M03 A3013 RMK A01 T00111025  RH  078%=      5-min Rain = 0
KHRS 171110Z 31010KT 01/M02 A3012 RMK A01 T00111024  RH  078%=      5-min Rain = 0
KHRS 171115Z 30009KT 01/M03 A3013 RMK A01 T00111025  RH  078%=      5-min Rain = 0
KHRS 171120Z 30009KT 01/M03 A3013 RMK A01 T00081026  RH  079%=      5-min Rain = 0
KHRS 171125Z 29008KT 01/M03 A3013 RMK A01 T00071026  RH  080%=      5-min Rain = 0
KHRS 171130Z 29008KT 01/M03 A3013 RMK A01 T00051028  RH  080%=      5-min Rain = 0
KHRS 171135Z 29010KT 00/M03 A3013 RMK A01 T00021029  RH  081%=      5-min Rain = 0
KHRS 171140Z 29011KT 00/M03 A3012 RMK A01 T00031027  RH  081%=      5-min Rain = 0
KHRS 171145Z 29010KT 00/M03 A3012 RMK A01 T00031028  RH  081%=      5-min Rain = 0
KHRS 171150Z 30010KT 00/M03 A3012 RMK A01 T00041026  RH  081%=      5-min Rain = 0
KHRS 171155Z 30009KT 01/M03 A3012 RMK A01 T00071025  RH  080%=      5-min Rain = 0
KHRS 171200Z 29008KT 01/M03 A3012 RMK A01 T00081025  RH  079%=      5-min Rain = 0
KHRS 171205Z 26006KT 01/M03 A3013 RMK A01 T00051028  RH  079%=      5-min Rain = 0
KHRS 171210Z 24007KT M00/M03 A3013 RMK A01 T10031034  RH  080%=      5-min Rain = 0
KHRS 171215Z 25008KT M00/M03 A3013 RMK A01 T10031028  RH  084%=      5-min Rain = 0
KHRS 171220Z 25008KT 00/M03 A3013 RMK A01 T00031025  RH  083%=      5-min Rain = 0
KHRS 171225Z 26009KT 00/M03 A3013 RMK A01 T00031026  RH  082%=      5-min Rain = 0
KHRS 171230Z 26009KT 00/03 A3014 RMK A01 T00000-29  RH  082%=      5-min Rain = 0
KHRS 171235Z 26009KT M00/M03 A3014 RMK A01 T10031029  RH  083%=      5-min Rain = 0
KHRS 171240Z 26008KT M00/M03 A3014 RMK A01 T10031028  RH  084%=      5-min Rain = 0
KHRS 171245Z 25008KT M00/M03 A3015 RMK A01 T10021028  RH  084%=      5-min Rain = 0
KHRS 171250Z 24008KT M00/M03 A3015 RMK A01 T10041029  RH  084%=      5-min Rain = 0
KHRS 171255Z 25008KT M01/M03 A3015 RMK A01 T10051029  RH  085%=      5-min Rain = 0
KHRS 171300Z 24008KT M01/M03 A3015 RMK A01 T10061029  RH  086%=      5-min Rain = 0
KHRS 171305Z 23010KT M01/M03 A3015 RMK A01 T10051029  RH  085%=      5-min Rain = 0
KHRS 171310Z 24010KT M00/M03 A3016 RMK A01 T10041028  RH  084%=      5-min Rain = 0
KHRS 171315Z 25010KT M00/M03 A3016 RMK A01 T10011027  RH  084%=      5-min Rain = 0
KHRS 171320Z 25009KT 00/03 A3017 RMK A01 T00000-26  RH  084%=      5-min Rain = 0
KHRS 171325Z 26010KT 00/03 A3017 RMK A01 T00-00-25  RH  084%=      5-min Rain = 0
KHRS 171330Z 26009KT 00/03 A3017 RMK A01 T00000-25  RH  084%=      5-min Rain = 0
KHRS 171335Z 25009KT M00/M03 A3017 RMK A01 T10011026  RH  084%=      5-min Rain = 0
KHRS 171340Z 26009KT M00/M03 A3017 RMK A01 T10031027  RH  085%=      5-min Rain = 0
KHRS 171345Z 27007KT M00/M03 A3018 RMK A01 T10041028  RH  085%=      5-min Rain = 0
KHRS 171350Z 26008KT M01/M03 A3018 RMK A01 T10061029  RH  085%=      5-min Rain = 0
KHRS 171355Z 26007KT M01/M03 A3018 RMK A01 T10081030  RH  086%=      5-min Rain = 0
KHRS 171400Z 26007KT M01/M03 A3018 RMK A01 T10101031  RH  086%=      5-min Rain = 0
KHRS 171405Z 25008KT M01/M03 A3018 RMK A01 T10111031  RH  087%=      5-min Rain = 0
KHRS 171410Z 26009KT M01/M03 A3018 RMK A01 T10091028  RH  088%=      5-min Rain = 0
KHRS 171415Z 26009KT M00/M03 A3018 RMK A01 T10041025  RH  087%=      5-min Rain = 0
KHRS 171420Z 27009KT 00/M02 A3018 RMK A01 T00011022  RH  086%=      5-min Rain = 0
KHRS 171425Z 27008KT 01/M02 A3018 RMK A01 T00061020  RH  084%=      5-min Rain = 0
KHRS 171430Z 28007KT 01/M02 A3018 RMK A01 T00071021  RH  083%=      5-min Rain = 0
KHRS 171435Z 28006KT 01/M02 A3018 RMK A01 T00081021  RH  082%=      5-min Rain = 0
KHRS 171440Z 26007KT 01/M02 A3018 RMK A01 T00081020  RH  082%=      5-min Rain = 0
KHRS 171445Z 27006KT 01/M02 A3018 RMK A01 T00101018  RH  083%=      5-min Rain = 0
KHRS 171450Z 25005KT 01/M02 A3018 RMK A01 T00121017  RH  082%=      5-min Rain = 0
KHRS 171455Z 25005KT 01/M02 A3018 RMK A01 T00141017  RH  081%=      5-min Rain = 0
KHRS 171500Z 26006KT 02/M01 A3018 RMK A01 T00171014  RH  081%=      5-min Rain = 0
KHRS 171505Z 27006KT 02/M01 A3018 RMK A01 T00211012  RH  080%=      5-min Rain = 0
KHRS 171510Z 27005KT 03/M01 A3018 RMK A01 T00251010  RH  079%=      5-min Rain = 0
KHRS 171515Z 26004KT 03/M01 A3018 RMK A01 T00281008  RH  078%=      5-min Rain = 0
KHRS 171520Z 27004KT 03/M01 A3018 RMK A01 T00331005  RH  077%=      5-min Rain = 0
KHRS 171525Z 28004KT 04/M00 A3018 RMK A01 T00371003  RH  076%=      5-min Rain = 0
KHRS 171530Z 29005KT 04/00 A3018 RMK A01 T00440000  RH  074%=      5-min Rain = 0
KHRS 171535Z 29005KT 05/M00 A3018 RMK A01 T00511001  RH  070%=      5-min Rain = 0
KHRS 171540Z 28005KT 06/00 A3019 RMK A01 T00570000  RH  068%=      5-min Rain = 0
KHRS 171545Z 26005KT 06/00 A3019 RMK A01 T00610001  RH  066%=      5-min Rain = 0
KHRS 171550Z 24005KT 07/00 A3019 RMK A01 T00670003  RH  064%=      5-min Rain = 0
KHRS 171555Z 24005KT 07/01 A3019 RMK A01 T00720005  RH  063%=      5-min Rain = 0
KHRS 171600Z 25005KT 07/01 A302 RMK A01 T00730005  RH  063%=      5-min Rain = 0
KHRS 171605Z 26004KT 08/01 A3019 RMK A01 T00750007  RH  063%=      5-min Rain = 0
KHRS 171610Z 28004KT 08/01 A3019 RMK A01 T00770007  RH  062%=      5-min Rain = 0
KHRS 171615Z 27004KT 08/01 A3019 RMK A01 T00810008  RH  060%=      5-min Rain = 0
KHRS 171620Z 27004KT 09/01 A3019 RMK A01 T00870008  RH  058%=      5-min Rain = 0
KHRS 171625Z 28005KT 09/01 A3019 RMK A01 T00920007  RH  056%=      5-min Rain = 0
KHRS 171630Z 29006KT 10/00 A3019 RMK A01 T00970003  RH  052%=      5-min Rain = 0
KHRS 171635Z 29006KT 10/00 A3019 RMK A01 T01010002  RH  051%=      5-min Rain = 0
KHRS 171640Z 29006KT 10/00 A302 RMK A01 T01040002  RH  050%=      5-min Rain = 0
KHRS 171645Z 29006KT 11/00 A302 RMK A01 T01080002  RH  048%=      5-min Rain = 0
KHRS 171650Z 29005KT 11/00 A302 RMK A01 T01130002  RH  047%=      5-min Rain = 0
KHRS 171655Z 28006KT 12/M00 A302 RMK A01 T01171004  RH  044%=      5-min Rain = 0
KHRS 171700Z 27006KT 12/M01 A302 RMK A01 T01211008  RH  041%=      5-min Rain = 0
KHRS 171705Z 27005KT 12/M01 A3021 RMK A01 T01221011  RH  040%=      5-min Rain = 0
KHRS 171710Z 25006KT 13/M00 A3021 RMK A01 T01261003  RH  041%=      5-min Rain = 0
KHRS 171715Z 25006KT 13/00 A3021 RMK A01 T01250002  RH  043%=      5-min Rain = 0
KHRS 171720Z 24005KT 13/M00 A3021 RMK A01 T01261001  RH  042%=      5-min Rain = 0
KHRS 171725Z 23005KT 13/M01 A3021 RMK A01 T01281010  RH  039%=      5-min Rain = 0
KHRS 171730Z 22005KT 13/M01 A3021 RMK A01 T01291008  RH  039%=      5-min Rain = 0
KHRS 171735Z 23004KT 13/M01 A3022 RMK A01 T01301014  RH  037%=      5-min Rain = 0
KHRS 171740Z 23004KT 13/M01 A3022 RMK A01 T01301013  RH  038%=      5-min Rain = 0
KHRS 171745Z 22004KT 13/M02 A3021 RMK A01 T01321020  RH  035%=      5-min Rain = 0
KHRS 171750Z 24005KT 14/M01 A3021 RMK A01 T01361014  RH  036%=      5-min Rain = 0
KHRS 171755Z 23006KT 14/M02 A3021 RMK A01 T01381016  RH  035%=      5-min Rain = 0
KHRS 171800Z 23005KT 14/M02 A3021 RMK A01 T01391015  RH  035%=      5-min Rain = 0
KHRS 171805Z 22004KT 14/M02 A3021 RMK A01 T01411020  RH  033%=      5-min Rain = 0
KHRS 171810Z 23004KT 14/M02 A3021 RMK A01 T01411017  RH  034%=      5-min Rain = 0
KHRS 171815Z 22004KT 14/M02 A302 RMK A01 T01441016  RH  034%=      5-min Rain = 0
KHRS 171820Z 19005KT 15/M03 A302 RMK A01 T01481030  RH  030%=      5-min Rain = 0
KHRS 171825Z 19003KT 15/M03 A3019 RMK A01 T01491029  RH  029%=      5-min Rain = 0
KHRS 171830Z 19004KT 15/M03 A3019 RMK A01 T01511032  RH  028%=      5-min Rain = 0
KHRS 171835Z 19005KT 15/M04 A3019 RMK A01 T01521036  RH  027%=      5-min Rain = 0
KHRS 171840Z 20004KT 15/M04 A3018 RMK A01 T01521036  RH  027%=      5-min Rain = 0
KHRS 171845Z 19004KT 15/M04 A3018 RMK A01 T01541036  RH  027%=      5-min Rain = 0
KHRS 171850Z 20003G8KT 16/M03 A3017 RMK A01 T01561032  RH  028%=      5-min Rain = 0
KHRS 171855Z 23004KT 16/M04 A3017 RMK A01 T01581037  RH  026%=      5-min Rain = 0
KHRS 171900Z 21005KT 16/M04 A3017 RMK A01 T01591035  RH  026%=      5-min Rain = 0
KHRS 171905Z 20006KT 16/M03 A3016 RMK A01 T01591034  RH  027%=      5-min Rain = 0
KHRS 171910Z 21006KT 16/M03 A3016 RMK A01 T01591031  RH  027%=      5-min Rain = 0
KHRS 171915Z 20006KT 16/M03 A3016 RMK A01 T01611033  RH  026%=      5-min Rain = 0
KHRS 171920Z 20005KT 16/M03 A3015 RMK A01 T01631032  RH  026%=      5-min Rain = 0
KHRS 171925Z 19006KT 16/M04 A3014 RMK A01 T01641035  RH  026%=      5-min Rain = 0
KHRS 171930Z 17005KT 17/M04 A3014 RMK A01 T01691035  RH  025%=      5-min Rain = 0
KHRS 171935Z 18005KT 17/M04 A3013 RMK A01 T01681038  RH  024%=      5-min Rain = 0
KHRS 171940Z 19006KT 17/M04 A3013 RMK A01 T01681037  RH  025%=      5-min Rain = 0
KHRS 171945Z 20008KT 17/M04 A3012 RMK A01 T01681041  RH  024%=      5-min Rain = 0
KHRS 171950Z 20008KT 17/M04 A3012 RMK A01 T01701037  RH  024%=      5-min Rain = 0
KHRS 171955Z 19006KT 17/M04 A3012 RMK A01 T01711035  RH  024%=      5-min Rain = 0
KHRS 172000Z 18006KT 17/M04 A3012 RMK A01 T01711035  RH  025%=      5-min Rain = 0
KHRS 172005Z 19007KT 17/M04 A3011 RMK A01 T01701035  RH  025%=      5-min Rain = 0
KHRS 172010Z 21009KT 17/M04 A3011 RMK A01 T01731040  RH  023%=      5-min Rain = 0
KHRS 172015Z 19008G13KT 17/M04 A3011 RMK A01 T01731036  RH  024%=      5-min Rain = 0
KHRS 172020Z 22008G13KT 17/M03 A3011 RMK A01 T01711034  RH  025%=      5-min Rain = 0
KHRS 172025Z 20008G15KT 17/M04 A3011 RMK A01 T01741035  RH  024%=      5-min Rain = 0
KHRS 172030Z 20008G13KT 18/M03 A301 RMK A01 T01751034  RH  024%=      5-min Rain = 0
KHRS 172035Z 20007G14KT 18/M03 A301 RMK A01 T01781031  RH  024%=      5-min Rain = 0
KHRS 172040Z 20008KT 18/M03 A301 RMK A01 T01761031  RH  024%=      5-min Rain = 0
KHRS 172045Z 20009G14KT 18/M03 A3009 RMK A01 T01751030  RH  025%=      5-min Rain = 0
KHRS 172050Z 21008G13KT 17/M03 A3009 RMK A01 T01741028  RH  025%=      5-min Rain = 0
KHRS 172055Z 20011KT 18/M03 A3009 RMK A01 T01771028  RH  025%=      5-min Rain = 0
KHRS 172100Z 20008KT 18/M03 A3009 RMK A01 T01751029  RH  025%=      5-min Rain = 0
KHRS 172105Z 20008G13KT 18/M03 A3008 RMK A01 T01751032  RH  024%=      5-min Rain = 0
KHRS 172110Z 20009KT 18/M03 A3008 RMK A01 T01781031  RH  024%=      5-min Rain = 0
KHRS 172115Z 21009G16KT 18/M03 A3008 RMK A01 T01781034  RH  024%=      5-min Rain = 0
KHRS 172120Z 20009KT 18/M04 A3008 RMK A01 T01791036  RH  023%=      5-min Rain = 0
KHRS 172125Z 21010KT 18/M04 A3008 RMK A01 T01781036  RH  023%=      5-min Rain = 0
KHRS 172130Z 20010KT 18/M04 A3008 RMK A01 T01771035  RH  024%=      5-min Rain = 0
KHRS 172135Z 21009KT 18/M03 A3008 RMK A01 T01791034  RH  023%=      5-min Rain = 0
KHRS 172140Z 19008KT 18/M03 A3008 RMK A01 T01801033  RH  023%=      5-min Rain = 0
KHRS 172145Z 18008KT 18/M04 A3008 RMK A01 T01801035  RH  023%=      5-min Rain = 0
KHRS 172150Z 20011KT 18/M04 A3008 RMK A01 T01801035  RH  023%=      5-min Rain = 0
KHRS 172155Z 20011KT 18/M04 A3008 RMK A01 T01801036  RH  023%=      5-min Rain = 0
KHRS 172200Z 20012KT 18/M04 A3008 RMK A01 T01811036  RH  023%=      5-min Rain = 0
KHRS 172205Z 19011KT 18/M03 A3008 RMK A01 T01811034  RH  023%=      5-min Rain = 0
KHRS 172210Z 19010KT 18/M03 A3008 RMK A01 T01811034  RH  023%=      5-min Rain = 0
KHRS 172215Z 19010KT 18/M04 A3007 RMK A01 T01821035  RH  023%=      5-min Rain = 0
KHRS 172220Z 18009KT 18/M03 A3007 RMK A01 T01801033  RH  023%=      5-min Rain = 0
KHRS 172225Z 19010KT 18/M03 A3007 RMK A01 T01801031  RH  024%=      5-min Rain = 0
KHRS 172230Z 19010KT 18/M03 A3007 RMK A01 T01791032  RH  024%=      5-min Rain = 0
KHRS 172235Z 20010KT 18/M03 A3007 RMK A01 T01791031  RH  024%=      5-min Rain = 0
KHRS 172240Z 19009KT 18/M03 A3007 RMK A01 T01811031  RH  024%=      5-min Rain = 0
KHRS 172245Z 20008KT 18/M03 A3006 RMK A01 T01811032  RH  024%=      5-min Rain = 0
KHRS 172250Z 19009KT 18/M03 A3006 RMK A01 T01791029  RH  024%=      5-min Rain = 0
KHRS 172255Z 18008G13KT 18/M03 A3006 RMK A01 T01791027  RH  025%=      5-min Rain = 0
KHRS 172300Z 18009KT 18/M02 A3006 RMK A01 T01771023  RH  026%=      5-min Rain = 0
KHRS 172305Z 18008KT 18/M02 A3006 RMK A01 T01751022  RH  026%=      5-min Rain = 0
KHRS 172310Z 18008KT 17/M02 A3006 RMK A01 T01731022  RH  027%=      5-min Rain = 0
KHRS 172315Z 18008KT 17/M02 A3006 RMK A01 T01701023  RH  027%=      5-min Rain = 0
KHRS 172320Z 18008KT 16/M02 A3006 RMK A01 T01641024  RH  028%=      5-min Rain = 0
KHRS 172325Z 18007KT 16/M02 A3006 RMK A01 T01591023  RH  029%=      5-min Rain = 0
KHRS 172330Z 18008KT 16/M02 A3006 RMK A01 T01561023  RH  029%=      5-min Rain = 0
KHRS 172335Z 18008KT 15/M02 A3005 RMK A01 T01531024  RH  030%=      5-min Rain = 0
KHRS 172340Z 18008KT 15/M03 A3005 RMK A01 T01501025  RH  030%=      5-min Rain = 0
KHRS 172345Z 17007KT 15/M02 A3005 RMK A01 T01481023  RH  031%=      5-min Rain = 0
KHRS 172350Z 17006KT 14/M02 A3005 RMK A01 T01441023  RH  032%=      5-min Rain = 0
KHRS 172355Z 17006KT 14/M02 A3005 RMK A01 T01381020  RH  034%=      5-min Rain = 0
KHRS 180000Z 17006KT 13/M02 A3005 RMK A01 T01341018  RH  035%=      5-min Rain = 0
KHRS 180005Z 16006KT 13/M02 A3005 RMK A01 T01301019  RH  036%=      5-min Rain = 0
KHRS 180010Z 16006KT 13/M02 A3005 RMK A01 T01251020  RH  037%=      5-min Rain = 0
KHRS 180015Z 17005KT 12/M02 A3006 RMK A01 T01211019  RH  038%=      5-min Rain = 0
KHRS 180020Z 17006KT 12/M02 A3005 RMK A01 T01171020  RH  039%=      5-min Rain = 0
KHRS 180025Z 17006KT 12/M02 A3005 RMK A01 T01151023  RH  038%=      5-min Rain = 0
KHRS 180030Z 17007KT 11/M02 A3005 RMK A01 T01121023  RH  039%=      5-min Rain = 0
KHRS 180035Z 18008KT 11/M02 A3005 RMK A01 T01091023  RH  040%=      5-min Rain = 0
KHRS 180040Z 18008KT 12/M02 A3005 RMK A01 T01151023  RH  039%=      5-min Rain = 0
KHRS 180045Z 18008KT 12/M02 A3005 RMK A01 T01191024  RH  037%=      5-min Rain = 0
KHRS 180050Z 18008KT 12/M03 A3006 RMK A01 T01171025  RH  038%=      5-min Rain = 0
KHRS 180055Z 17007KT 11/M03 A3006 RMK A01 T01121026  RH  038%=      5-min Rain = 0
KHRS 180100Z 17007KT 11/M03 A3006 RMK A01 T01061025  RH  040%=      5-min Rain = 0
KHRS 180105Z 17007KT 10/M02 A3006 RMK A01 T01001024  RH  042%=      5-min Rain = 0
KHRS 180110Z 17007KT 09/M02 A3006 RMK A01 T00921023  RH  045%=      5-min Rain = 0
KHRS 180115Z 17008KT 09/M02 A3006 RMK A01 T00881023  RH  046%=      5-min Rain = 0
KHRS 180120Z 17008KT 09/M02 A3006 RMK A01 T00891024  RH  045%=      5-min Rain = 0
KHRS 180125Z 17009KT 09/M03 A3005 RMK A01 T00901025  RH  045%=      5-min Rain = 0
KHRS 180130Z 17009KT 09/M03 A3005 RMK A01 T00901025  RH  045%=      5-min Rain = 0
KHRS 180135Z 17008KT 09/M03 A3005 RMK A01 T00871025  RH  046%=      5-min Rain = 0
KHRS 180140Z 17008KT 08/M02 A3005 RMK A01 T00841023  RH  047%=      5-min Rain = 0
KHRS 180145Z 17009KT 08/M02 A3005 RMK A01 T00841023  RH  047%=      5-min Rain = 0
KHRS 180150Z 17008KT 09/M03 A3005 RMK A01 T00851025  RH  047%=      5-min Rain = 0
KHRS 180155Z 17008KT 08/M03 A3005 RMK A01 T00831026  RH  047%=      5-min Rain = 0
KHRS 180200Z 17008KT 08/M03 A3005 RMK A01 T00831027  RH  046%=      5-min Rain = 0
KHRS 180205Z 18009KT 08/M03 A3005 RMK A01 T00841026  RH  046%=      5-min Rain = 0
KHRS 180210Z 17009KT 09/M03 A3005 RMK A01 T00881025  RH  046%=      5-min Rain = 0
KHRS 180215Z 17008G13KT 09/M03 A3005 RMK A01 T00921025  RH  044%=      5-min Rain = 0
KHRS 180220Z 17008KT 09/M02 A3005 RMK A01 T00891023  RH  046%=      5-min Rain = 0
KHRS 180225Z 17008KT 09/M02 A3004 RMK A01 T00851022  RH  047%=      5-min Rain = 0
KHRS 180230Z 17008KT 08/M02 A3004 RMK A01 T00831022  RH  048%=      5-min Rain = 0
KHRS 180235Z 17008KT 08/M02 A3004 RMK A01 T00801022  RH  049%=      5-min Rain = 0
KHRS 180240Z 17006KT 08/M02 A3004 RMK A01 T00771022  RH  050%=      5-min Rain = 0
KHRS 180245Z 18007KT 08/M02 A3004 RMK A01 T00761020  RH  051%=      5-min Rain = 0
KHRS 180250Z 18009KT 08/M02 A3004 RMK A01 T00801019  RH  050%=      5-min Rain = 0
KHRS 180255Z 19010KT 08/M02 A3004 RMK A01 T00841019  RH  049%=      5-min Rain = 0
KHRS 180300Z 19010KT 08/M02 A3004 RMK A01 T00791018  RH  051%=      5-min Rain = 0
KHRS 180305Z 19010KT 08/M02 A3003 RMK A01 T00821019  RH  050%=      5-min Rain = 0
KHRS 180310Z 19011KT 08/M02 A3003 RMK A01 T00811018  RH  050%=      5-min Rain = 0
KHRS 180315Z 19012KT 08/M02 A3003 RMK A01 T00811017  RH  050%=      5-min Rain = 0
KHRS 180320Z 19012KT 08/M02 A3003 RMK A01 T00841017  RH  049%=      5-min Rain = 0
KHRS 180325Z 18011KT 09/M02 A3002 RMK A01 T00881018  RH  048%=      5-min Rain = 0
KHRS 180330Z 19012KT 09/M02 A3003 RMK A01 T00881018  RH  048%=      5-min Rain = 0
KHRS 180335Z 18011KT 09/M02 A3003 RMK A01 T00861017  RH  049%=      5-min Rain = 0
KHRS 180340Z 18012G17KT 09/M02 A3003 RMK A01 T00891018  RH  048%=      5-min Rain = 0
KHRS 180345Z 18010G15KT 09/M02 A3002 RMK A01 T00881018  RH  048%=      5-min Rain = 0
KHRS 180350Z 19010KT 08/M02 A3002 RMK A01 T00831018  RH  049%=      5-min Rain = 0
KHRS 180355Z 19010KT 08/M02 A3002 RMK A01 T00781019  RH  051%=      5-min Rain = 0
KHRS 180400Z 19010KT 07/M02 A3002 RMK A01 T00741019  RH  052%=      5-min Rain = 0
KHRS 180405Z 19010KT 07/M02 A3002 RMK A01 T00681021  RH  054%=      5-min Rain = 0
KHRS 180410Z 19011KT 07/M02 A3001 RMK A01 T00691021  RH  053%=      5-min Rain = 0
KHRS 180415Z 19010KT 07/M02 A3001 RMK A01 T00681021  RH  054%=      5-min Rain = 0
KHRS 180420Z 19009KT 07/M02 A3001 RMK A01 T00651022  RH  055%=      5-min Rain = 0
KHRS 180425Z 19008KT 06/M02 A3001 RMK A01 T00621022  RH  055%=      5-min Rain = 0
KHRS 180430Z 19009KT 06/M02 A3001 RMK A01 T00611023  RH  055%=      5-min Rain = 0
KHRS 180435Z 19008KT 06/M02 A3001 RMK A01 T00611022  RH  056%=      5-min Rain = 0
KHRS 180440Z 20008KT 06/M02 A30 RMK A01 T00581023  RH  056%=      5-min Rain = 0
KHRS 180445Z 20008KT 05/M03 A30 RMK A01 T00531025  RH  058%=      5-min Rain = 0
KHRS 180450Z 21008KT 05/M02 A30 RMK A01 T00501024  RH  059%=      5-min Rain = 0
KHRS 180455Z 21008KT 05/M03 A30 RMK A01 T00511025  RH  059%=      5-min Rain = 0
KHRS 180500Z 21009KT 05/M03 A30 RMK A01 T00471026  RH  060%=      5-min Rain = 0
KHRS 180505Z 21008KT 05/M03 A30 RMK A01 T00451026  RH  061%=      5-min Rain = 0
KHRS 180510Z 21007KT 04/M03 A30 RMK A01 T00431026  RH  061%=      5-min Rain = 0
KHRS 180515Z 22007KT 04/M03 A30 RMK A01 T00441027  RH  061%=      5-min Rain = 0
KHRS 180520Z 22004KT 04/M03 A30 RMK A01 T00391028  RH  062%=      5-min Rain = 0
KHRS 180525Z 23004KT 04/M03 A3001 RMK A01 T00351026  RH  065%=      5-min Rain = 0
KHRS 180530Z 23004KT 03/M03 A30 RMK A01 T00341026  RH  065%=      5-min Rain = 0
KHRS 180535Z 22005KT 03/M03 A30 RMK A01 T00331026  RH  066%=      5-min Rain = 0
KHRS 180540Z 21007KT 03/M03 A30 RMK A01 T00331028  RH  065%=      5-min Rain = 0
KHRS 180545Z 20008KT 04/M02 A2999 RMK A01 T00351024  RH  066%=      5-min Rain = 0
KHRS 180550Z 20008KT 04/M02 A2999 RMK A01 T00431020  RH  064%=      5-min Rain = 0
KHRS 180555Z 19009KT 05/M02 A2999 RMK A01 T00481017  RH  063%=      5-min Rain = 0

Page generated in 0.0093 seconds.